Time;durP1;ratioP1;P1;durP2;ratioP2;P2;SDS_P1;SDS_P2;PMS_P1;PMS_P2;Temp;Humidity;BMP_temperature;BMP_pressure;BME280_temperature;BME280_humidity;BME280_pressure;Samples;Min_cycle;Max_cycle;Signal;HPM_P1;HPM_P2
2022/01/25 00:08:54;;;;;;;20.48;9.88;;;3.40;99.90;;;;;;5100024;28;20032;-68
2022/01/25 00:25:30;;;;;;;19.08;9.73;;;3.40;99.90;;;;;;5098562;28;20087;-68
2022/01/25 00:28:18;;;;;;;21.80;10.27;;;3.40;99.90;;;;;;5098339;28;20044;-68
2022/01/25 00:31:00;;;;;;;20.45;10.60;;;3.40;99.90;;;;;;5084276;28;20420;-68
2022/01/25 00:33:30;;;;;;;23.45;10.70;;;3.40;99.90;;;;;;5099561;28;20043;-68
2022/01/25 00:35:58;;;;;;;19.88;9.82;;;3.40;99.90;;;;;;5098978;28;20031;-68
2022/01/25 00:38:25;;;;;;;21.67;10.70;;;3.40;99.90;;;;;;5099581;28;20038;-68
2022/01/25 00:40:52;;;;;;;19.38;10.52;;;3.40;99.90;;;;;;5099467;28;20373;-67
2022/01/25 00:43:22;;;;;;;22.38;10.38;;;3.40;99.90;;;;;;5099181;28;20089;-68
2022/01/25 00:45:52;;;;;;;20.83;10.45;;;3.30;99.90;;;;;;5098983;28;20492;-68
2022/01/25 00:48:31;;;;;;;24.73;11.43;;;3.30;99.90;;;;;;5099001;28;20028;-68
2022/01/25 00:53:57;;;;;;;22.15;10.02;;;3.30;99.90;;;;;;5098241;28;20153;-67
2022/01/25 00:56:31;;;;;;;22.33;10.75;;;3.30;99.90;;;;;;5097941;28;20039;-68
2022/01/25 00:59:00;;;;;;;22.17;10.35;;;3.30;99.90;;;;;;5097979;28;20039;-68
2022/01/25 01:01:28;;;;;;;23.20;10.90;;;3.30;99.90;;;;;;5098072;28;20020;-68
2022/01/25 01:03:56;;;;;;;22.58;11.30;;;3.30;99.90;;;;;;5080267;28;20169;-68
2022/01/25 01:06:24;;;;;;;23.90;11.98;;;3.30;99.90;;;;;;5097825;28;20460;-68
2022/01/25 01:08:51;;;;;;;24.40;11.13;;;3.30;99.90;;;;;;5079813;28;20023;-68
2022/01/25 01:11:26;;;;;;;20.33;9.55;;;3.30;99.90;;;;;;5080077;28;20052;-68
2022/01/25 01:14:10;;;;;;;22.60;11.38;;;3.30;99.90;;;;;;5098998;28;20020;-68
2022/01/25 01:16:55;;;;;;;23.40;11.52;;;3.30;99.90;;;;;;5098466;28;20344;-67
2022/01/25 01:39:20;;;;;;;27.75;11.13;;;3.30;99.90;;;;;;5042537;28;20045;-68
2022/01/25 01:47:41;;;;;;;24.60;11.05;;;3.30;99.90;;;;;;5090681;28;20050;-68
2022/01/25 01:50:14;;;;;;;26.33;12.15;;;3.30;99.90;;;;;;5097031;28;20102;-68
2022/01/25 01:52:42;;;;;;;23.65;10.13;;;3.30;99.90;;;;;;5097571;28;20051;-68
2022/01/25 01:55:12;;;;;;;27.50;11.55;;;3.30;99.90;;;;;;5097397;28;20102;-68
2022/01/25 01:57:41;;;;;;;25.55;11.15;;;3.30;99.90;;;;;;5097863;28;20031;-68
2022/01/25 02:00:09;;;;;;;22.52;10.80;;;3.30;99.90;;;;;;5097792;28;20107;-68
2022/01/25 02:02:36;;;;;;;25.73;11.45;;;3.30;99.90;;;;;;5098291;28;20320;-68
2022/01/25 02:05:04;;;;;;;25.10;10.52;;;3.30;99.90;;;;;;5097785;28;20327;-68
2022/01/25 02:07:32;;;;;;;25.92;10.90;;;3.30;99.90;;;;;;5097780;28;20051;-68
2022/01/25 02:09:59;;;;;;;31.05;10.98;;;3.30;99.90;;;;;;5097606;28;20077;-68
2022/01/25 02:12:28;;;;;;;24.70;10.77;;;3.30;99.90;;;;;;5079958;28;20091;-68
2022/01/25 02:14:56;;;;;;;21.95;10.80;;;3.40;99.90;;;;;;5097865;28;20048;-67
2022/01/25 02:17:53;;;;;;;24.17;11.98;;;3.40;99.90;;;;;;5096783;28;20027;-68
2022/01/25 02:23:24;;;;;;;25.40;11.88;;;3.30;99.90;;;;;;5097270;28;20073;-68
2022/01/25 02:25:57;;;;;;;26.80;10.70;;;3.40;99.90;;;;;;5096534;28;20032;-68
2022/01/25 02:28:31;;;;;;;22.30;10.32;;;3.30;99.90;;;;;;5078660;28;20024;-68
2022/01/25 02:30:59;;;;;;;28.20;11.52;;;3.40;99.90;;;;;;5096648;28;20024;-68
2022/01/25 02:33:26;;;;;;;26.25;11.55;;;3.30;99.90;;;;;;5096514;28;20027;-68
2022/01/25 02:35:55;;;;;;;27.67;11.65;;;3.30;99.90;;;;;;5078816;28;20092;-68
2022/01/25 02:38:28;;;;;;;30.05;12.38;;;3.40;99.90;;;;;;5097074;28;20024;-68
2022/01/25 02:40:57;;;;;;;22.90;11.30;;;3.30;99.90;;;;;;5097609;28;20111;-68
2022/01/25 02:43:26;;;;;;;24.55;10.50;;;3.40;99.90;;;;;;5097685;28;20110;-68
2022/01/25 02:48:55;;;;;;;25.58;10.70;;;3.30;99.90;;;;;;5097422;28;20462;-68
2022/01/25 02:51:31;;;;;;;24.65;11.73;;;3.30;99.90;;;;;;5097465;28;20028;-68
2022/01/25 02:53:59;;;;;;;29.85;11.05;;;3.30;99.90;;;;;;5097311;28;20042;-68
2022/01/25 02:56:30;;;;;;;38.92;12.77;;;3.40;99.90;;;;;;5097373;28;20020;-68
2022/01/25 02:58:57;;;;;;;24.00;11.32;;;3.30;99.90;;;;;;5099802;28;20016;-68
2022/01/25 03:01:24;;;;;;;26.00;11.15;;;3.30;99.90;;;;;;5083125;28;20024;-67
2022/01/25 03:03:52;;;;;;;33.65;12.15;;;3.30;99.90;;;;;;5082314;28;20058;-68
2022/01/25 03:06:23;;;;;;;27.20;11.07;;;3.30;99.90;;;;;;5100706;28;20354;-68
2022/01/25 03:08:51;;;;;;;25.30;11.73;;;3.30;99.90;;;;;;5082155;28;20017;-68
2022/01/25 03:11:21;;;;;;;28.67;11.73;;;3.30;99.90;;;;;;5100888;28;20028;-68
2022/01/25 03:13:51;;;;;;;27.75;11.48;;;3.30;99.90;;;;;;5100020;28;20016;-67
2022/01/25 03:16:36;;;;;;;23.85;11.20;;;3.30;99.90;;;;;;5100089;28;20028;-68
2022/01/25 03:21:58;;;;;;;24.95;11.45;;;3.20;99.90;;;;;;5101074;28;20035;-68
2022/01/25 03:24:26;;;;;;;29.92;11.18;;;3.20;99.90;;;;;;5100477;28;20048;-68
2022/01/25 03:26:54;;;;;;;27.30;11.13;;;3.20;99.90;;;;;;5101278;28;20110;-68
2022/01/25 03:29:21;;;;;;;24.73;11.02;;;3.20;99.90;;;;;;5100732;28;20024;-68
2022/01/25 03:31:49;;;;;;;24.60;11.50;;;3.20;99.90;;;;;;5083307;28;20055;-68
2022/01/25 03:34:16;;;;;;;25.65;12.10;;;3.20;99.90;;;;;;5100639;28;20024;-68
2022/01/25 03:36:44;;;;;;;26.98;11.75;;;3.20;99.90;;;;;;5101191;28;20020;-68
2022/01/25 03:39:11;;;;;;;27.33;12.75;;;3.20;99.90;;;;;;5065972;28;20020;-68
2022/01/25 03:41:39;;;;;;;29.15;12.02;;;3.20;99.90;;;;;;5100655;28;20031;-68
2022/01/25 03:44:07;;;;;;;25.10;11.23;;;3.10;99.90;;;;;;5099477;28;20027;-68
2022/01/25 03:46:57;;;;;;;30.20;13.05;;;3.20;99.90;;;;;;5081479;28;20108;-68
2022/01/25 03:52:12;;;;;;;30.55;11.55;;;3.20;99.90;;;;;;5099710;28;20066;-68
2022/01/25 03:54:40;;;;;;;32.20;12.75;;;3.20;99.90;;;;;;5099071;28;20034;-68
2022/01/25 03:57:07;;;;;;;29.75;12.25;;;3.20;99.90;;;;;;5081275;28;20031;-68
2022/01/25 03:59:35;;;;;;;27.17;12.13;;;3.20;99.90;;;;;;5081274;28;20038;-68
2022/01/25 04:02:02;;;;;;;31.17;13.70;;;3.20;99.90;;;;;;5099730;28;20070;-68
2022/01/25 04:04:30;;;;;;;31.80;12.80;;;3.20;99.90;;;;;;5099842;28;20031;-68
2022/01/25 04:06:58;;;;;;;29.58;11.93;;;3.20;99.90;;;;;;5100136;28;20412;-68
2022/01/25 04:09:28;;;;;;;26.90;11.57;;;3.20;99.90;;;;;;5099061;28;20055;-68
2022/01/25 04:11:55;;;;;;;28.10;11.23;;;3.20;99.90;;;;;;5100212;28;20324;-68
2022/01/25 04:14:23;;;;;;;30.50;13.25;;;3.20;99.90;;;;;;5099895;28;20027;-68
2022/01/25 04:16:57;;;;;;;29.90;12.32;;;3.20;99.90;;;;;;5100200;28;20099;-68
2022/01/25 04:25:14;;;;;;;31.85;13.65;;;3.20;99.90;;;;;;5023711;28;20054;-68
2022/01/25 04:27:42;;;;;;;32.15;13.02;;;3.20;99.90;;;;;;5059718;28;20036;-68
2022/01/25 04:30:10;;;;;;;28.67;12.68;;;3.10;99.90;;;;;;5078946;28;20029;-68
2022/01/25 04:32:58;;;;;;;27.50;12.85;;;3.10;99.90;;;;;;5078367;28;20408;-68
2022/01/25 04:35:43;;;;;;;27.52;12.70;;;3.10;99.90;;;;;;5078479;28;20035;-68
2022/01/25 04:49:18;;;;;;;32.92;13.35;;;3.10;99.90;;;;;;5079244;28;20035;-68
2022/01/25 04:51:59;;;;;;;33.92;14.07;;;3.10;99.90;;;;;;5078695;28;20024;-68
2022/01/25 04:54:45;;;;;;;36.67;14.77;;;3.10;99.90;;;;;;5078546;28;20373;-68
2022/01/25 04:59:56;;;;;;;31.85;13.52;;;3.00;99.90;;;;;;5079062;28;20027;-67
2022/01/25 05:05:17;;;;;;;33.38;14.55;;;3.00;99.90;;;;;;5078915;28;20024;-67
2022/01/25 05:10:12;;;;;;;36.35;14.68;;;3.00;99.90;;;;;;5077800;28;20309;-67
2022/01/25 05:12:44;;;;;;;35.65;13.90;;;3.00;99.90;;;;;;5077426;28;20021;-68
2022/01/25 05:15:38;;;;;;;32.08;13.45;;;3.10;99.90;;;;;;5060709;28;20416;-68
2022/01/25 05:18:23;;;;;;;32.88;13.93;;;3.10;99.90;;;;;;5063654;28;20028;-68
2022/01/25 05:23:38;;;;;;;37.25;13.02;;;3.10;99.90;;;;;;5079963;28;20048;-68
2022/01/25 05:26:06;;;;;;;31.48;14.52;;;3.10;99.90;;;;;;5097389;28;20308;-68
2022/01/25 05:28:33;;;;;;;37.75;15.63;;;3.10;99.90;;;;;;5097919;28;20024;-68
2022/01/25 05:31:01;;;;;;;31.65;14.40;;;3.10;99.90;;;;;;5098474;28;20028;-68
2022/01/25 05:33:28;;;;;;;35.28;14.73;;;3.10;99.90;;;;;;5099134;28;20316;-68
2022/01/25 05:35:55;;;;;;;33.03;13.32;;;3.10;99.90;;;;;;5098342;28;20028;-68
2022/01/25 05:38:23;;;;;;;31.95;13.75;;;3.10;99.90;;;;;;5098390;28;20024;-68
2022/01/25 05:41:01;;;;;;;35.42;15.63;;;3.10;99.90;;;;;;5098648;28;20016;-68
2022/01/25 05:46:18;;;;;;;38.33;14.80;;;3.10;99.90;;;;;;5098350;28;20031;-67
2022/01/25 05:48:47;;;;;;;37.97;15.85;;;3.10;99.90;;;;;;5097371;28;20024;-68
2022/01/25 05:51:15;;;;;;;34.03;15.18;;;3.10;99.90;;;;;;5097267;28;20376;-67
2022/01/25 05:53:43;;;;;;;32.38;14.57;;;3.10;99.90;;;;;;5096968;28;20020;-68
2022/01/25 05:56:10;;;;;;;31.38;13.52;;;3.10;99.90;;;;;;5079096;28;20048;-68
2022/01/25 05:58:38;;;;;;;38.72;15.57;;;3.10;99.90;;;;;;5097014;28;20020;-68
2022/01/25 06:01:05;;;;;;;29.73;13.63;;;3.10;99.90;;;;;;5097024;28;20513;-68
2022/01/25 06:03:33;;;;;;;36.08;15.07;;;3.10;99.90;;;;;;5062566;28;20035;-68
2022/01/25 06:06:00;;;;;;;34.63;13.73;;;3.10;99.90;;;;;;5078869;28;20082;-67
2022/01/25 06:08:27;;;;;;;36.95;15.23;;;3.10;99.90;;;;;;5079653;28;20016;-68
2022/01/25 06:10:56;;;;;;;34.95;15.05;;;3.10;99.90;;;;;;5097183;28;20039;-68
2022/01/25 06:13:23;;;;;;;44.53;15.98;;;3.10;99.90;;;;;;5097707;28;20028;-68
2022/01/25 06:15:50;;;;;;;40.10;16.88;;;3.10;99.90;;;;;;5097662;28;20058;-68
2022/01/25 06:18:18;;;;;;;40.75;15.32;;;3.10;99.90;;;;;;5098173;28;20410;-68
2022/01/25 06:20:46;;;;;;;35.70;15.65;;;3.10;99.90;;;;;;5097768;28;20016;-68
2022/01/25 06:23:14;;;;;;;37.40;15.40;;;3.20;99.90;;;;;;5079712;28;20416;-68
2022/01/25 06:25:41;;;;;;;37.20;15.60;;;3.20;99.90;;;;;;5076048;28;20127;-68
2022/01/25 06:28:09;;;;;;;31.95;14.80;;;3.20;99.90;;;;;;5076926;28;20150;-68
2022/01/25 06:30:36;;;;;;;38.63;14.93;;;3.20;99.90;;;;;;5077421;28;20024;-68
2022/01/25 06:33:06;;;;;;;37.33;15.73;;;3.20;99.90;;;;;;5080467;28;20303;-68
2022/01/25 06:35:34;;;;;;;34.95;14.30;;;3.20;99.90;;;;;;5083857;28;20020;-67
2022/01/25 06:38:01;;;;;;;41.50;16.88;;;3.20;99.90;;;;;;5082951;28;20021;-68
2022/01/25 06:40:29;;;;;;;33.53;14.65;;;3.20;99.90;;;;;;5082022;28;20021;-68
2022/01/25 06:42:56;;;;;;;45.55;18.88;;;3.20;99.90;;;;;;5081900;28;20035;-68
2022/01/25 06:45:24;;;;;;;47.50;19.77;;;3.20;99.90;;;;;;5082950;28;20036;-68
2022/01/25 06:47:52;;;;;;;50.28;20.00;;;3.20;99.90;;;;;;5082826;28;20115;-68
2022/01/25 06:50:22;;;;;;;50.17;19.85;;;3.20;99.90;;;;;;5083074;28;20013;-68
2022/01/25 06:52:50;;;;;;;53.47;22.92;;;3.20;99.90;;;;;;5083151;28;20070;-67
2022/01/25 06:55:19;;;;;;;51.63;20.13;;;3.20;99.90;;;;;;5084124;28;20016;-68
2022/01/25 06:57:47;;;;;;;53.45;20.02;;;3.20;99.90;;;;;;5082716;28;20115;-67
2022/01/25 07:00:19;;;;;;;58.72;22.25;;;3.20;99.90;;;;;;5083744;28;20024;-67
2022/01/25 07:02:46;;;;;;;48.38;19.60;;;3.20;99.90;;;;;;5082694;28;20028;-68
2022/01/25 07:05:13;;;;;;;57.78;23.25;;;3.20;99.90;;;;;;5084200;28;20036;-68
2022/01/25 07:07:42;;;;;;;53.13;20.67;;;3.30;99.90;;;;;;5083159;28;20021;-68
2022/01/25 07:10:10;;;;;;;47.45;19.70;;;3.20;99.90;;;;;;5083874;28;20397;-71
2022/01/25 07:12:37;;;;;;;50.92;21.02;;;3.20;99.90;;;;;;5082682;28;20020;-69
2022/01/25 07:15:05;;;;;;;51.80;21.20;;;3.20;99.90;;;;;;5083333;28;20021;-72
2022/01/25 07:17:33;;;;;;;46.30;20.15;;;3.20;99.90;;;;;;5083256;28;20048;-71
2022/01/25 07:20:01;;;;;;;51.47;22.52;;;3.20;99.90;;;;;;5082587;28;20028;-70
2022/01/25 07:22:28;;;;;;;54.03;20.55;;;3.20;99.90;;;;;;5081701;28;20024;-70
2022/01/25 07:24:56;;;;;;;55.67;20.67;;;3.30;99.90;;;;;;5095391;28;20443;-71
2022/01/25 07:27:23;;;;;;;50.47;22.60;;;3.20;99.90;;;;;;5102769;28;20031;-71
2022/01/25 07:29:50;;;;;;;55.33;20.38;;;3.30;99.90;;;;;;5084811;28;20019;-71
2022/01/25 07:32:17;;;;;;;44.50;19.55;;;3.30;99.90;;;;;;5084996;28;20024;-71
2022/01/25 07:34:44;;;;;;;50.72;20.58;;;3.20;99.90;;;;;;5102635;28;20030;-70
2022/01/25 07:37:12;;;;;;;51.47;20.23;;;3.30;99.90;;;;;;5103407;28;20368;-69
2022/01/25 07:39:41;;;;;;;49.28;21.90;;;3.20;99.90;;;;;;5103558;28;20431;-69
2022/01/25 07:42:11;;;;;;;53.00;21.20;;;3.20;99.90;;;;;;5103546;28;20165;-72
2022/01/25 07:44:39;;;;;;;50.00;21.70;;;3.20;99.90;;;;;;5100359;28;20063;-72
2022/01/25 07:47:08;;;;;;;51.55;23.13;;;3.20;99.90;;;;;;5100935;28;20024;-72
2022/01/25 07:49:35;;;;;;;54.80;21.40;;;3.20;99.90;;;;;;5100394;28;20016;-72
2022/01/25 07:52:04;;;;;;;50.13;21.52;;;3.20;99.90;;;;;;5082798;28;20027;-71
2022/01/25 07:54:31;;;;;;;52.63;22.88;;;3.20;99.90;;;;;;5082268;28;20105;-71
2022/01/25 07:56:59;;;;;;;58.85;23.52;;;3.20;99.90;;;;;;5099990;28;20024;-71
2022/01/25 07:59:26;;;;;;;55.83;21.88;;;3.20;99.90;;;;;;5081265;28;20020;-71
2022/01/25 08:01:54;;;;;;;44.42;18.08;;;3.20;99.90;;;;;;5064801;28;20378;-70
2022/01/25 08:04:22;;;;;;;55.85;21.40;;;3.20;99.90;;;;;;5099705;28;20038;-66
2022/01/25 08:06:50;;;;;;;51.10;20.15;;;3.20;99.90;;;;;;5099039;28;20115;-67
2022/01/25 08:09:19;;;;;;;47.03;19.75;;;3.20;99.90;;;;;;5098972;28;20024;-67
2022/01/25 08:11:46;;;;;;;48.13;19.90;;;3.20;99.90;;;;;;5099249;28;20020;-66
2022/01/25 08:14:18;;;;;;;46.80;19.58;;;3.10;99.90;;;;;;5064454;28;20070;-68
2022/01/25 08:16:48;;;;;;;48.97;18.90;;;3.10;99.90;;;;;;5098950;28;20039;-67
2022/01/25 08:19:17;;;;;;;46.92;18.98;;;3.10;99.90;;;;;;5099407;28;20379;-67
2022/01/25 08:21:46;;;;;;;52.97;22.30;;;3.10;99.90;;;;;;5100315;28;20085;-67
2022/01/25 08:24:15;;;;;;;45.13;18.85;;;3.10;99.90;;;;;;5099662;28;20050;-67
2022/01/25 08:26:46;;;;;;;40.33;18.08;;;3.10;99.90;;;;;;5081682;28;20477;-68
2022/01/25 08:29:13;;;;;;;43.70;18.75;;;3.10;99.90;;;;;;5099864;28;20024;-68
2022/01/25 08:31:41;;;;;;;48.00;20.58;;;3.10;99.90;;;;;;5081761;28;20304;-68
2022/01/25 08:34:11;;;;;;;48.75;20.23;;;3.10;99.90;;;;;;5099571;28;20091;-68
2022/01/25 08:36:40;;;;;;;48.15;18.88;;;3.10;99.90;;;;;;5099255;28;20123;-68
2022/01/25 08:39:08;;;;;;;50.50;20.30;;;3.10;99.90;;;;;;5081292;28;20028;-67
2022/01/25 08:41:35;;;;;;;45.42;19.77;;;3.20;99.90;;;;;;5098663;28;20020;-67
2022/01/25 08:44:03;;;;;;;46.72;19.10;;;3.20;99.90;;;;;;5098272;28;20316;-67
2022/01/25 08:46:30;;;;;;;49.58;19.52;;;3.20;99.90;;;;;;5098743;28;20028;-66
2022/01/25 08:48:57;;;;;;;48.88;20.85;;;3.20;99.90;;;;;;5063664;28;20090;-66
2022/01/25 08:51:24;;;;;;;45.95;17.90;;;3.20;99.90;;;;;;5098302;28;20028;-67
2022/01/25 08:53:52;;;;;;;43.50;18.50;;;3.20;99.90;;;;;;5080966;28;20024;-67
2022/01/25 08:56:19;;;;;;;44.35;17.67;;;3.20;99.90;;;;;;5097765;28;20441;-67
2022/01/25 08:58:46;;;;;;;41.75;18.40;;;3.20;99.90;;;;;;5098103;28;20050;-67
2022/01/25 09:01:13;;;;;;;43.45;19.33;;;3.20;99.90;;;;;;5098163;28;20028;-67
2022/01/25 09:03:41;;;;;;;47.40;18.73;;;3.20;99.90;;;;;;5099337;28;20031;-67
2022/01/25 09:06:09;;;;;;;47.50;19.35;;;3.30;99.90;;;;;;5081058;28;20324;-66
2022/01/25 09:08:36;;;;;;;42.22;18.27;;;3.30;99.90;;;;;;5099171;28;20030;-67
2022/01/25 09:11:05;;;;;;;60.25;20.13;;;3.30;99.90;;;;;;5081019;28;20473;-67
2022/01/25 09:13:34;;;;;;;45.40;18.83;;;3.40;99.90;;;;;;5099275;28;20045;-67
2022/01/25 09:16:02;;;;;;;46.70;19.42;;;3.40;99.90;;;;;;5080746;28;20028;-67
2022/01/25 09:18:29;;;;;;;41.35;16.58;;;3.40;99.90;;;;;;5098545;28;20036;-66
2022/01/25 09:20:56;;;;;;;35.53;17.05;;;3.40;99.90;;;;;;5080739;28;20475;-66
2022/01/25 09:23:25;;;;;;;45.60;18.92;;;3.40;99.90;;;;;;5097792;28;20024;-67
2022/01/25 09:25:52;;;;;;;42.05;18.48;;;3.40;99.90;;;;;;5074200;28;20460;-67
2022/01/25 09:28:20;;;;;;;42.25;19.00;;;3.40;99.90;;;;;;5076122;28;20028;-67
2022/01/25 09:30:48;;;;;;;42.65;16.63;;;3.40;99.90;;;;;;5077360;28;20024;-66
2022/01/25 09:33:16;;;;;;;45.47;18.30;;;3.50;99.90;;;;;;5077689;28;20013;-71
2022/01/25 09:35:44;;;;;;;42.30;17.30;;;3.50;99.90;;;;;;5077155;28;20455;-66
2022/01/25 09:38:11;;;;;;;42.00;17.83;;;3.50;99.90;;;;;;5077161;28;20443;-67
2022/01/25 09:40:39;;;;;;;40.90;17.13;;;3.50;99.90;;;;;;5076461;28;20024;-66
2022/01/25 09:43:07;;;;;;;41.55;17.40;;;3.60;99.90;;;;;;5077235;28;20073;-67
2022/01/25 09:45:36;;;;;;;40.90;16.77;;;3.60;99.90;;;;;;5077737;28;20028;-67
2022/01/25 09:48:05;;;;;;;45.15;16.65;;;3.60;99.90;;;;;;5076712;28;20331;-67
2022/01/25 09:50:32;;;;;;;42.15;17.52;;;3.60;99.90;;;;;;5078185;28;20044;-66
2022/01/25 09:53:00;;;;;;;41.13;17.33;;;3.60;99.90;;;;;;5078158;28;20031;-67
2022/01/25 09:55:32;;;;;;;39.53;15.52;;;3.60;99.90;;;;;;5076631;28;20332;-67
2022/01/25 09:57:59;;;;;;;41.90;16.95;;;3.60;99.90;;;;;;5076740;28;20051;-66
2022/01/25 10:00:29;;;;;;;41.58;17.60;;;3.70;99.90;;;;;;5077810;28;20043;-66
2022/01/25 10:03:13;;;;;;;40.65;17.63;;;3.70;99.90;;;;;;5078319;28;20028;-66
2022/01/25 10:05:45;;;;;;;41.28;17.20;;;3.70;99.90;;;;;;5077037;28;20028;-67
2022/01/25 10:08:27;;;;;;;33.75;14.73;;;3.70;99.90;;;;;;5075987;28;20429;-66
2022/01/25 10:10:58;;;;;;;30.88;13.75;;;3.70;99.90;;;;;;5076758;28;20104;-66
2022/01/25 10:13:34;;;;;;;35.50;14.20;;;3.70;99.90;;;;;;5076622;28;20048;-67
2022/01/25 10:16:07;;;;;;;38.03;15.13;;;3.70;99.90;;;;;;5076775;28;20070;-67
2022/01/25 10:18:39;;;;;;;38.40;15.73;;;3.70;99.90;;;;;;5076498;28;20417;-66
2022/01/25 10:21:17;;;;;;;36.78;15.27;;;3.70;99.90;;;;;;5076640;28;20059;-66
2022/01/25 10:24:09;;;;;;;32.72;14.18;;;3.70;99.90;;;;;;5077102;28;20432;-66
2022/01/25 10:26:50;;;;;;;25.05;11.40;;;3.70;99.90;;;;;;5097427;28;20028;-68
2022/01/25 10:29:29;;;;;;;32.50;14.52;;;3.70;99.90;;;;;;5080386;28;20316;-66
2022/01/25 10:32:04;;;;;;;35.78;13.07;;;3.80;99.90;;;;;;5097305;28;20351;-69
2022/01/25 10:34:39;;;;;;;36.13;14.63;;;3.80;99.90;;;;;;5097388;28;20030;-68
2022/01/25 10:37:19;;;;;;;36.25;14.52;;;3.80;99.90;;;;;;5097767;28;20024;-68
2022/01/25 10:39:48;;;;;;;39.22;15.73;;;3.90;99.90;;;;;;5098007;28;20027;-68
2022/01/25 10:42:27;;;;;;;36.88;14.63;;;3.90;99.90;;;;;;5097434;28;20435;-69
2022/01/25 10:44:59;;;;;;;33.55;14.02;;;3.90;99.90;;;;;;5097434;28;20024;-68
2022/01/25 10:47:49;;;;;;;36.60;14.80;;;3.90;99.90;;;;;;5097247;28;20442;-69
2022/01/25 10:50:34;;;;;;;32.13;12.23;;;3.90;99.90;;;;;;5096718;28;20365;-68
2022/01/25 10:53:11;;;;;;;35.47;14.03;;;3.90;99.90;;;;;;5096265;28;20035;-68
2022/01/25 10:55:44;;;;;;;37.08;14.27;;;4.00;99.90;;;;;;5096798;28;20200;-68
2022/01/25 10:58:13;;;;;;;51.28;19.48;;;4.00;99.90;;;;;;5078361;28;20024;-68
2022/01/25 11:00:44;;;;;;;34.63;14.55;;;4.00;99.90;;;;;;5078369;28;20085;-69
2022/01/25 11:03:24;;;;;;;35.25;15.55;;;4.00;99.90;;;;;;5078347;28;20067;-69
2022/01/25 11:05:53;;;;;;;34.30;13.65;;;4.00;99.90;;;;;;5096631;28;20044;-69
2022/01/25 11:08:24;;;;;;;34.53;13.52;;;4.00;99.90;;;;;;5096169;28;20088;-67
2022/01/25 11:10:57;;;;;;;29.55;13.13;;;4.00;99.90;;;;;;5096715;28;20359;-67
2022/01/25 11:16:03;;;;;;;26.67;11.60;;;4.00;99.90;;;;;;5097289;28;20375;-67
2022/01/25 11:18:31;;;;;;;24.83;11.40;;;4.10;99.90;;;;;;5079887;28;20020;-67
2022/01/25 11:21:01;;;;;;;27.75;11.35;;;4.10;99.90;;;;;;5083082;28;20026;-67
2022/01/25 11:23:32;;;;;;;27.45;11.13;;;4.10;99.90;;;;;;5100988;28;20364;-67
2022/01/25 11:26:02;;;;;;;31.42;11.55;;;4.10;99.90;;;;;;5100578;28;20048;-67
2022/01/25 11:28:32;;;;;;;34.33;12.73;;;4.00;99.90;;;;;;5100638;28;20103;-67
2022/01/25 11:31:07;;;;;;;36.15;13.65;;;4.10;99.90;;;;;;5099989;28;20028;-68
2022/01/25 11:33:41;;;;;;;27.40;12.20;;;4.00;99.90;;;;;;5099828;28;20027;-67
2022/01/25 11:36:13;;;;;;;28.40;10.88;;;4.10;99.90;;;;;;5099688;28;20028;-67
2022/01/25 11:38:51;;;;;;;31.65;12.63;;;4.00;99.90;;;;;;5081664;28;20031;-67
2022/01/25 11:41:23;;;;;;;28.15;10.63;;;4.00;99.90;;;;;;5099829;28;20110;-67
2022/01/25 11:44:21;;;;;;;24.88;10.15;;;4.00;99.90;;;;;;5099624;28;20035;-69
2022/01/25 11:47:07;;;;;;;30.02;11.30;;;4.00;99.90;;;;;;5083204;28;20028;-67
2022/01/25 11:49:34;;;;;;;28.23;11.77;;;4.10;99.90;;;;;;5099387;28;20028;-67
2022/01/25 11:52:14;;;;;;;29.38;10.27;;;4.10;99.90;;;;;;5099797;28;20028;-68
2022/01/25 11:54:43;;;;;;;28.33;10.93;;;4.10;99.90;;;;;;5100554;28;20308;-67
2022/01/25 11:57:13;;;;;;;24.10;10.05;;;4.10;99.90;;;;;;5100793;28;20044;-67
2022/01/25 11:59:41;;;;;;;21.45;9.68;;;4.10;99.90;;;;;;5100143;28;20111;-67
2022/01/25 12:02:09;;;;;;;31.08;12.05;;;4.10;99.90;;;;;;5100439;28;20076;-67
2022/01/25 12:04:43;;;;;;;31.52;14.15;;;4.10;99.90;;;;;;5082343;28;20085;-67
2022/01/25 12:07:24;;;;;;;30.20;11.95;;;4.10;99.90;;;;;;5100123;28;20032;-67
2022/01/25 12:10:04;;;;;;;30.83;11.60;;;4.10;99.90;;;;;;5099809;28;20031;-67
2022/01/25 12:12:33;;;;;;;25.60;10.02;;;4.10;99.90;;;;;;5099566;28;20093;-66
2022/01/25 12:15:14;;;;;;;28.70;10.73;;;4.10;99.90;;;;;;5099161;28;20030;-67
2022/01/25 12:17:41;;;;;;;24.83;10.25;;;4.10;99.90;;;;;;5098888;28;20016;-67
2022/01/25 12:20:23;;;;;;;25.83;10.93;;;4.10;99.90;;;;;;5098900;28;20020;-67
2022/01/25 12:23:07;;;;;;;24.75;9.77;;;4.00;99.90;;;;;;5098803;28;20060;-67
2022/01/25 12:25:55;;;;;;;21.00;9.50;;;4.00;99.90;;;;;;5077289;28;20321;-67
2022/01/25 12:28:28;;;;;;;23.95;10.77;;;4.00;99.90;;;;;;5078505;28;20074;-67
2022/01/25 12:31:01;;;;;;;28.85;10.70;;;4.00;99.90;;;;;;5077784;28;20355;-68
2022/01/25 12:33:32;;;;;;;26.95;11.00;;;4.00;99.90;;;;;;5078774;28;20020;-68
2022/01/25 12:36:08;;;;;;;27.33;10.75;;;4.00;99.90;;;;;;5079564;28;20052;-68
2022/01/25 12:38:46;;;;;;;;;;;4.00;99.90;;;;;;5079570;28;20020;-67
2022/01/25 12:41:18;;;;;;;24.20;10.40;;;4.00;99.90;;;;;;5079105;28;19912;-68
2022/01/25 12:43:53;;;;;;;24.02;10.75;;;4.00;99.90;;;;;;5079041;28;20021;-67
2022/01/25 12:46:24;;;;;;;25.38;9.88;;;4.00;99.90;;;;;;5079149;28;20024;-67
2022/01/25 12:48:58;;;;;;;30.05;10.82;;;4.00;99.90;;;;;;5079081;28;20416;-72
2022/01/25 12:51:33;;;;;;;25.75;11.18;;;4.00;99.90;;;;;;5077918;28;20021;-67
2022/01/25 12:54:07;;;;;;;21.60;9.65;;;4.00;99.90;;;;;;5079366;28;20026;-68
2022/01/25 12:56:38;;;;;;;27.95;11.13;;;4.00;99.90;;;;;;5078181;28;20020;-68
2022/01/25 12:59:15;;;;;;;23.98;10.02;;;3.90;99.90;;;;;;5077872;28;20116;-67
2022/01/25 13:01:43;;;;;;;27.33;10.73;;;3.90;99.90;;;;;;5076796;28;20074;-67
2022/01/25 13:04:12;;;;;;;28.23;10.65;;;3.90;99.90;;;;;;5078468;28;20039;-66
2022/01/25 13:06:48;;;;;;;29.38;10.77;;;3.90;99.90;;;;;;5077700;28;20056;-67
2022/01/25 13:09:25;;;;;;;;;;;3.90;99.90;;;;;;5077160;28;20412;-67
2022/01/25 13:14:45;;;;;;;26.63;10.80;;;3.80;99.90;;;;;;5077540;28;20028;-67
2022/01/25 13:17:19;;;;;;;29.05;11.38;;;3.80;99.90;;;;;;5077664;28;20024;-67
2022/01/25 13:19:58;;;;;;;26.13;10.27;;;3.90;99.90;;;;;;5077386;28;20421;-67
2022/01/25 13:22:34;;;;;;;22.00;9.50;;;3.90;99.90;;;;;;5078717;28;20028;-67
2022/01/25 13:28:00;;;;;;;24.80;9.95;;;3.90;99.90;;;;;;5098863;28;20063;-67
2022/01/25 13:33:10;;;;;;;25.02;9.25;;;3.90;99.90;;;;;;5098513;28;20020;-67
2022/01/25 13:35:41;;;;;;;27.08;9.43;;;3.90;99.90;;;;;;5098656;28;20054;-67
2022/01/25 13:38:20;;;;;;;18.20;8.18;;;3.90;99.90;;;;;;5097658;28;20073;-67
2022/01/25 13:46:52;;;;;;;22.60;8.77;;;3.90;99.90;;;;;;5097269;28;20366;-67
2022/01/25 13:49:21;;;;;;;22.52;9.02;;;3.90;99.90;;;;;;5094041;28;20456;-67
2022/01/25 13:51:52;;;;;;;23.15;9.80;;;3.90;99.90;;;;;;5097509;28;20085;-67
2022/01/25 13:54:23;;;;;;;27.00;10.23;;;3.90;99.90;;;;;;5097044;28;20016;-67
2022/01/25 13:56:51;;;;;;;24.77;10.20;;;3.80;99.90;;;;;;5098203;28;20351;-67
2022/01/25 13:59:21;;;;;;;27.27;10.77;;;3.80;99.90;;;;;;5097959;28;20472;-68
2022/01/25 14:01:49;;;;;;;25.23;9.52;;;3.80;99.90;;;;;;5098837;28;20059;-67
2022/01/25 14:04:24;;;;;;;26.42;9.65;;;3.80;99.90;;;;;;5098010;28;20020;-67
2022/01/25 14:06:58;;;;;;;22.77;9.60;;;3.80;99.90;;;;;;5098260;28;20419;-67
2022/01/25 14:09:34;;;;;;;27.65;11.52;;;3.80;99.90;;;;;;5080312;28;20319;-67
2022/01/25 14:23:26;;;;;;;28.40;10.85;;;3.70;99.90;;;;;;5097046;28;20036;-67
2022/01/25 14:26:10;;;;;;;24.40;10.15;;;3.70;99.90;;;;;;5096529;28;20075;-67
2022/01/25 14:28:45;;;;;;;34.67;14.05;;;3.70;99.90;;;;;;5097252;28;20150;-67
2022/01/25 14:31:22;;;;;;;26.23;11.23;;;3.70;99.90;;;;;;5097537;28;20344;-67
2022/01/25 14:34:01;;;;;;;29.65;11.15;;;3.60;99.90;;;;;;5096580;28;20416;-67
2022/01/25 14:36:32;;;;;;;28.65;10.43;;;3.60;99.90;;;;;;5096793;28;20032;-67
2022/01/25 14:38:59;;;;;;;35.00;11.57;;;3.60;99.90;;;;;;5097193;28;20081;-67
2022/01/25 14:41:32;;;;;;;23.08;9.02;;;3.60;99.90;;;;;;5096700;28;20479;-67
2022/01/25 14:44:03;;;;;;;24.58;9.73;;;3.60;99.90;;;;;;5098062;28;20427;-67
2022/01/25 14:46:40;;;;;;;25.38;9.93;;;3.60;99.90;;;;;;5097355;28;20111;-67
2022/01/25 14:49:14;;;;;;;26.85;10.80;;;3.50;99.90;;;;;;5097986;28;20350;-67
2022/01/25 14:51:51;;;;;;;26.65;10.32;;;3.60;99.90;;;;;;5097398;28;20024;-67
2022/01/25 14:54:26;;;;;;;23.02;9.90;;;3.50;99.90;;;;;;5099429;28;20029;-67
2022/01/25 14:56:56;;;;;;;34.22;14.45;;;3.60;99.90;;;;;;5101645;28;20023;-67
2022/01/25 14:59:41;;;;;;;29.40;12.32;;;3.60;99.90;;;;;;5101764;28;20324;-67